Time;durP1;ratioP1;P1;durP2;ratioP2;P2;SDS_P1;SDS_P2;PMS_P1;PMS_P2;Temp;Humidity;BMP_temperature;BMP_pressure;BME280_temperature;BME280_humidity;BME280_pressure;Samples;Min_cycle;Max_cycle;Signal;HPM_P1;HPM_P2
2020/12/21 00:01:48;;;;;;;114.67;53.63;;;;;;;3.65;99.06;96824.97;5069959;28;20200;-69
2020/12/21 00:04:17;;;;;;;137.37;66.13;;;;;;;3.70;98.57;96822.53;5070082;28;20564;-70
2020/12/21 00:06:44;;;;;;;39.80;23.17;;;;;;;3.53;99.27;96832.63;5070521;28;20199;-70
2020/12/21 00:09:11;;;;;;;33.80;18.23;;;;;;;3.58;98.94;96830.22;5070019;28;20697;-69
2020/12/21 00:11:40;;;;;;;44.77;24.40;;;;;;;3.59;99.19;96834.31;5069880;28;20743;-70
2020/12/21 00:14:09;;;;;;;32.80;17.93;;;;;;;3.52;98.94;96831.06;5069946;28;20285;-69
2020/12/21 00:16:39;;;;;;;37.80;19.67;;;;;;;3.56;99.95;96829.63;5069997;28;20203;-69
2020/12/21 00:19:07;;;;;;;49.07;27.57;;;;;;;3.57;99.07;96841.47;5070076;28;20736;-68
2020/12/21 00:21:34;;;;;;;22.07;13.17;;;;;;;3.59;99.25;96841.25;5069783;28;20192;-69
2020/12/21 00:24:01;;;;;;;23.37;14.43;;;;;;;3.53;99.98;96842.91;5069888;28;20192;-68
2020/12/21 00:26:28;;;;;;;19.17;11.17;;;;;;;3.56;99.48;96846.84;5069918;28;20660;-67
2020/12/21 00:28:56;;;;;;;15.73;10.40;;;;;;;3.59;98.61;96842.03;5069853;28;20205;-70
2020/12/21 00:31:27;;;;;;;20.93;12.37;;;;;;;3.66;98.98;96853.03;5069798;28;20218;-70
2020/12/21 00:33:54;;;;;;;20.73;11.70;;;;;;;3.62;98.44;96844.19;5069809;28;20215;-70
2020/12/21 00:36:22;;;;;;;16.97;10.33;;;;;;;3.57;99.10;96843.28;5069973;28;20249;-70
2020/12/21 00:38:49;;;;;;;16.47;11.17;;;;;;;3.60;99.57;96840.25;5069711;28;20232;-70
2020/12/21 00:41:18;;;;;;;16.87;10.73;;;;;;;3.62;98.73;96845.97;5069759;28;20197;-70
2020/12/21 00:43:46;;;;;;;16.23;10.13;;;;;;;3.68;98.50;96850.25;5069550;28;20224;-70
2020/12/21 00:46:15;;;;;;;18.17;10.40;;;;;;;3.75;98.14;96843.25;5069861;28;20196;-70
2020/12/21 00:48:42;;;;;;;15.67;9.90;;;;;;;3.73;97.30;96843.47;5069548;28;20690;-69
2020/12/21 00:51:10;;;;;;;14.83;9.03;;;;;;;3.57;97.84;96843.28;5069989;28;20203;-69
2020/12/21 00:53:37;;;;;;;15.67;9.17;;;;;;;3.63;98.13;96839.84;5069720;28;20341;-69
2020/12/21 00:56:04;;;;;;;13.17;8.77;;;;;;;3.66;98.03;96837.63;5069622;28;20192;-68
2020/12/21 00:58:32;;;;;;;12.87;8.10;;;;;;;3.68;98.17;96845.91;5069442;28;20227;-69
2020/12/21 01:00:59;;;;;;;13.43;8.33;;;;;;;3.73;97.28;96842.69;5069739;28;20275;-68
2020/12/21 01:03:27;;;;;;;15.50;7.97;;;;;;;3.68;97.84;96840.78;5069690;28;20196;-70
2020/12/21 01:05:54;;;;;;;15.70;8.80;;;;;;;3.70;97.41;96837.97;5069584;28;20231;-69
2020/12/21 01:08:21;;;;;;;12.80;8.20;;;;;;;3.69;97.19;96846.66;5069487;28;20197;-69
2020/12/21 01:10:48;;;;;;;14.63;9.33;;;;;;;3.75;97.55;96841.44;5069316;28;20723;-70
2020/12/21 01:13:15;;;;;;;14.27;8.33;;;;;;;3.76;96.99;96845.59;5069416;28;20683;-69
2020/12/21 01:15:43;;;;;;;16.13;9.47;;;;;;;3.71;97.96;96847.25;5069682;28;20200;-69
2020/12/21 01:18:10;;;;;;;15.20;9.90;;;;;;;3.74;97.67;96846.81;5069562;28;20239;-70
2020/12/21 01:20:38;;;;;;;17.47;9.47;;;;;;;3.70;98.43;96840.53;5069476;28;20671;-69
2020/12/21 01:23:04;;;;;;;14.67;9.33;;;;;;;3.76;97.86;96842.25;5072969;28;20200;-69
2020/12/21 01:25:31;;;;;;;14.53;9.67;;;;;;;3.78;97.80;96835.91;5072720;28;20199;-70
2020/12/21 01:27:58;;;;;;;15.87;9.80;;;;;;;3.82;98.06;96828.53;5072741;28;20189;-69
2020/12/21 01:30:25;;;;;;;18.27;10.23;;;;;;;3.85;98.36;96828.88;5073009;28;20196;-69
2020/12/21 01:32:52;;;;;;;18.23;10.50;;;;;;;3.78;97.83;96827.41;5072742;28;20188;-68
2020/12/21 01:35:19;;;;;;;24.27;12.07;;;;;;;3.85;97.44;96833.22;5072743;28;20216;-69
2020/12/21 01:37:46;;;;;;;22.53;11.90;;;;;;;3.77;97.91;96836.09;5072586;28;20243;-70
2020/12/21 01:40:16;;;;;;;22.60;12.53;;;;;;;3.80;97.56;96830.53;5072673;28;20552;-70
2020/12/21 01:42:43;;;;;;;24.77;11.97;;;;;;;3.84;97.75;96836.78;5072452;28;20232;-69
2020/12/21 01:45:10;;;;;;;24.90;10.87;;;;;;;3.82;97.62;96831.88;5072610;28;20590;-70
2020/12/21 01:47:37;;;;;;;20.17;10.30;;;;;;;3.82;97.16;96834.47;5072687;28;20219;-69
2020/12/21 01:50:05;;;;;;;20.57;10.73;;;;;;;3.92;96.75;96831.38;5072474;28;20195;-70
2020/12/21 01:52:32;;;;;;;20.33;9.33;;;;;;;3.82;96.21;96831.09;5072446;28;20557;-70
2020/12/21 01:55:01;;;;;;;16.43;9.00;;;;;;;3.87;96.06;96828.66;5072417;28;20193;-69
2020/12/21 01:57:28;;;;;;;19.87;9.83;;;;;;;3.86;96.96;96833.00;5072234;28;20229;-70
2020/12/21 01:59:55;;;;;;;19.17;10.57;;;;;;;3.85;96.80;96834.00;5072227;28;20192;-70
2020/12/21 02:02:22;;;;;;;17.47;9.77;;;;;;;3.83;96.21;96832.69;5072324;28;20233;-71
2020/12/21 02:04:49;;;;;;;23.50;13.23;;;;;;;3.87;95.73;96841.53;5072362;28;20214;-70
2020/12/21 02:07:16;;;;;;;22.83;12.17;;;;;;;3.85;95.95;96833.22;5072456;28;20193;-67
2020/12/21 02:09:43;;;;;;;20.60;10.50;;;;;;;3.82;96.43;96829.31;5072445;28;20196;-69
2020/12/21 02:12:11;;;;;;;21.20;10.83;;;;;;;3.81;96.43;96824.38;5072214;28;20192;-70
2020/12/21 02:14:38;;;;;;;17.90;9.93;;;;;;;3.86;96.83;96822.72;5072198;28;20226;-69
2020/12/21 02:17:05;;;;;;;22.03;11.67;;;;;;;3.91;96.09;96814.38;5072039;28;20197;-69
2020/12/21 02:19:31;;;;;;;21.20;11.93;;;;;;;3.88;95.49;96817.38;5071854;28;20228;-71
2020/12/21 02:21:59;;;;;;;18.40;9.87;;;;;;;3.84;95.69;96818.78;5072141;28;20632;-70
2020/12/21 02:24:26;;;;;;;14.83;8.97;;;;;;;3.89;96.36;96819.72;5071901;28;20205;-69
2020/12/21 02:26:53;;;;;;;21.93;10.63;;;;;;;3.85;96.33;96807.50;5071872;28;20251;-69
2020/12/21 02:29:20;;;;;;;21.03;10.83;;;;;;;3.88;96.17;96809.66;5071800;28;20188;-68
2020/12/21 02:31:47;;;;;;;18.10;9.90;;;;;;;3.89;96.33;96816.34;5071502;28;20774;-69
2020/12/21 02:34:19;;;;;;;16.43;8.73;;;;;;;3.85;96.24;96812.66;5070674;28;20332;-68
2020/12/21 02:36:46;;;;;;;15.03;8.90;;;;;;;3.81;96.53;96814.09;5071913;28;20196;-70
2020/12/21 02:39:14;;;;;;;13.53;8.27;;;;;;;3.87;96.84;96813.22;5071676;28;20361;-70
2020/12/21 02:41:40;;;;;;;12.93;7.77;;;;;;;3.82;96.75;96805.38;5071355;28;20287;-70
2020/12/21 02:44:07;;;;;;;14.73;7.33;;;;;;;3.79;97.30;96804.03;5071463;28;20659;-69
2020/12/21 02:46:34;;;;;;;12.63;7.50;;;;;;;3.85;96.64;96810.88;5071457;28;20207;-69
2020/12/21 02:49:01;;;;;;;15.37;8.30;;;;;;;3.78;97.29;96809.41;5071673;28;20564;-69
2020/12/21 02:51:27;;;;;;;17.83;9.00;;;;;;;3.77;97.43;96802.69;5071591;28;20568;-70
2020/12/21 02:53:54;;;;;;;14.77;8.53;;;;;;;3.77;97.89;96812.97;5071221;28;20199;-70
2020/12/21 02:56:22;;;;;;;13.20;8.27;;;;;;;3.83;96.53;96818.03;5071078;28;20189;-68
2020/12/21 02:58:48;;;;;;;13.90;7.77;;;;;;;3.85;96.56;96810.88;5070947;28;20757;-70
2020/12/21 03:01:15;;;;;;;12.63;7.77;;;;;;;3.92;97.33;96817.72;5071113;28;20201;-70
2020/12/21 03:03:42;;;;;;;13.00;8.13;;;;;;;3.95;96.64;96815.50;5071450;28;20203;-70
2020/12/21 03:06:09;;;;;;;13.17;7.43;;;;;;;4.02;96.07;96826.47;5071076;28;20192;-71
2020/12/21 03:08:36;;;;;;;11.93;7.10;;;;;;;3.98;96.21;96827.13;5071044;28;20226;-70
2020/12/21 03:11:03;;;;;;;10.67;7.17;;;;;;;3.99;95.73;96831.25;5070788;28;20287;-70
2020/12/21 03:16:52;;;;;;;11.57;7.27;;;;;;;3.95;95.22;96828.34;5070922;28;20576;-69
2020/12/21 03:19:19;;;;;;;18.23;10.87;;;;;;;3.93;95.52;96838.09;5070601;28;20230;-69
2020/12/21 03:21:46;;;;;;;65.00;28.23;;;;;;;3.97;95.40;96828.94;5070747;28;20283;-67
2020/12/21 03:24:13;;;;;;;152.93;50.57;;;;;;;3.97;95.17;96818.63;5070567;28;20280;-69
2020/12/21 03:26:40;;;;;;;141.23;44.53;;;;;;;3.95;96.09;96812.13;5070422;28;20198;-70
2020/12/21 03:29:07;;;;;;;95.33;30.97;;;;;;;3.98;95.49;96809.94;5070766;28;20246;-69
2020/12/21 03:31:34;;;;;;;48.23;19.30;;;;;;;4.00;95.83;96813.03;5070662;28;20204;-68
2020/12/21 03:34:01;;;;;;;44.17;16.07;;;;;;;3.98;95.73;96815.06;5070309;28;20208;-68
2020/12/21 03:36:28;;;;;;;33.13;13.07;;;;;;;3.96;95.82;96817.06;5070361;28;20203;-66
2020/12/21 03:38:55;;;;;;;26.93;11.70;;;;;;;3.86;95.50;96811.66;5070260;28;20228;-70
2020/12/21 03:41:21;;;;;;;22.87;11.27;;;;;;;3.85;95.61;96820.38;5070669;28;20204;-67
2020/12/21 03:43:48;;;;;;;18.53;12.03;;;;;;;3.88;96.20;96814.81;5069945;28;20601;-69
2020/12/21 03:46:15;;;;;;;30.83;17.33;;;;;;;3.95;96.67;96815.50;5070165;28;20250;-68
2020/12/21 03:48:42;;;;;;;34.13;19.23;;;;;;;3.96;96.00;96819.63;5070256;28;20300;-70
2020/12/21 03:51:09;;;;;;;35.90;18.77;;;;;;;3.91;96.62;96814.38;5070211;28;20274;-70
2020/12/21 03:53:37;;;;;;;47.00;19.90;;;;;;;3.94;96.83;96811.34;5070478;28;20192;-68
2020/12/21 03:56:04;;;;;;;65.83;23.87;;;;;;;3.89;97.06;96808.63;5070342;28;20197;-69
2020/12/21 03:58:31;;;;;;;65.83;24.13;;;;;;;3.90;96.83;96810.22;5070058;28;20232;-70
2020/12/21 04:01:00;;;;;;;50.60;22.63;;;;;;;3.95;96.22;96807.78;5070195;28;20218;-70
2020/12/21 04:03:27;;;;;;;38.90;20.13;;;;;;;3.94;96.00;96806.19;5069980;28;20200;-69
2020/12/21 04:05:54;;;;;;;36.53;17.53;;;;;;;3.93;96.69;96812.38;5070011;28;20203;-70
2020/12/21 04:08:22;;;;;;;35.73;17.87;;;;;;;3.99;96.65;96816.63;5069925;28;20553;-69
2020/12/21 04:10:48;;;;;;;37.73;16.87;;;;;;;3.90;96.15;96812.78;5069967;28;20250;-69
2020/12/21 04:13:16;;;;;;;49.47;18.50;;;;;;;3.89;96.66;96814.56;5069977;28;20222;-70
2020/12/21 04:15:43;;;;;;;62.47;18.93;;;;;;;3.92;96.51;96815.94;5070014;28;20714;-69
2020/12/21 04:18:09;;;;;;;53.20;18.03;;;;;;;3.92;96.24;96808.22;5069949;28;20228;-68
2020/12/21 04:20:36;;;;;;;58.27;17.53;;;;;;;3.91;96.37;96809.22;5070032;28;20667;-69
2020/12/21 04:23:03;;;;;;;38.33;14.83;;;;;;;3.98;95.64;96809.13;5070084;28;20256;-69
2020/12/21 04:25:31;;;;;;;27.50;12.77;;;;;;;3.93;95.81;96809.78;5070076;28;20228;-69
2020/12/21 04:27:57;;;;;;;26.00;12.17;;;;;;;3.94;96.04;96803.63;5069633;28;20207;-69
2020/12/21 04:30:24;;;;;;;18.53;10.20;;;;;;;3.99;95.87;96806.31;5069758;28;20278;-70
2020/12/21 04:32:51;;;;;;;25.37;12.53;;;;;;;3.92;95.68;96815.94;5069848;28;20200;-70
2020/12/21 04:35:18;;;;;;;36.73;14.33;;;;;;;3.93;95.74;96807.22;5069877;28;20216;-69
2020/12/21 04:37:44;;;;;;;44.83;15.97;;;;;;;3.92;95.62;96800.50;5069670;28;20203;-69
2020/12/21 04:40:11;;;;;;;29.07;12.13;;;;;;;3.86;96.05;96809.09;5069828;28;20200;-69
2020/12/21 04:42:50;;;;;;;28.10;10.93;;;;;;;3.89;95.89;96806.84;5069789;28;20243;-69
2020/12/21 04:45:17;;;;;;;18.13;10.13;;;;;;;3.86;95.73;96804.72;5069766;28;20639;-68
2020/12/21 04:47:44;;;;;;;19.97;11.63;;;;;;;3.87;95.61;96802.94;5069714;28;20196;-70
2020/12/21 04:50:12;;;;;;;23.07;12.83;;;;;;;3.91;96.01;96798.94;5069583;28;20694;-70
2020/12/21 04:52:47;;;;;;;31.07;14.20;;;;;;;3.95;95.71;96805.19;5069475;28;20196;-70
2020/12/21 04:55:16;;;;;;;28.20;15.20;;;;;;;3.87;96.09;96810.66;5069720;28;20249;-70
2020/12/21 04:58:00;;;;;;;31.97;16.03;;;;;;;3.94;95.91;96806.19;5072951;28;20196;-67
2020/12/21 05:00:29;;;;;;;21.30;12.80;;;;;;;3.97;96.91;96812.72;5072196;28;20192;-69
2020/12/21 05:02:56;;;;;;;26.37;16.20;;;;;;;3.98;96.24;96820.22;5073295;28;20188;-71
2020/12/21 05:05:33;;;;;;;24.90;16.07;;;;;;;3.96;97.40;96816.28;5073268;28;20195;-69
2020/12/21 05:08:10;;;;;;;22.40;14.90;;;;;;;3.89;97.76;96812.00;5073283;28;20203;-69
2020/12/21 05:10:37;;;;;;;22.37;14.33;;;;;;;3.93;97.72;96816.72;5073280;28;20207;-69
2020/12/21 05:13:05;;;;;;;25.07;17.47;;;;;;;3.94;97.61;96819.06;5073144;28;20672;-70
2020/12/21 05:15:32;;;;;;;21.70;14.90;;;;;;;3.83;97.93;96822.41;5073225;28;20204;-70
2020/12/21 05:18:07;;;;;;;24.00;11.90;;;;;;;3.87;98.39;96810.66;5072955;28;20224;-69
2020/12/21 05:20:34;;;;;;;17.87;11.07;;;;;;;3.91;98.46;96811.78;5073037;28;20663;-69
2020/12/21 05:23:02;;;;;;;27.83;16.37;;;;;;;3.82;97.60;96816.47;5073501;28;20193;-69
2020/12/21 05:25:29;;;;;;;24.43;14.97;;;;;;;3.84;98.89;96818.78;5072946;28;20581;-69
2020/12/21 05:27:56;;;;;;;35.97;20.80;;;;;;;3.89;98.15;96812.00;5072942;28;20199;-70
2020/12/21 05:30:23;;;;;;;40.60;23.27;;;;;;;3.90;98.84;96808.44;5072915;28;20755;-69
2020/12/21 05:33:00;;;;;;;44.57;24.77;;;;;;;3.85;97.70;96810.09;5072924;28;20196;-70
2020/12/21 05:35:29;;;;;;;43.47;23.30;;;;;;;3.88;98.41;96812.25;5072686;28;20733;-70
2020/12/21 05:37:56;;;;;;;54.57;26.33;;;;;;;3.89;98.52;96811.22;5072769;28;20197;-69
2020/12/21 05:40:26;;;;;;;49.60;25.23;;;;;;;3.94;98.07;96816.50;5072765;28;20192;-68
2020/12/21 05:42:53;;;;;;;48.30;25.73;;;;;;;4.00;97.79;96818.19;5072815;28;20873;-67
2020/12/21 05:45:20;;;;;;;47.77;26.27;;;;;;;3.99;97.26;96819.19;5072720;28;20203;-70
2020/12/21 05:47:50;;;;;;;50.10;26.07;;;;;;;3.97;97.25;96821.22;5072574;28;20196;-69
2020/12/21 05:50:21;;;;;;;49.10;25.87;;;;;;;3.92;96.83;96818.50;5072721;28;20196;-71
2020/12/21 05:52:54;;;;;;;56.03;26.33;;;;;;;3.93;98.01;96827.81;5072731;28;20203;-70
2020/12/21 05:55:22;;;;;;;62.10;28.87;;;;;;;3.92;98.08;96821.06;5072387;28;20659;-70
2020/12/21 05:57:50;;;;;;;62.27;30.33;;;;;;;3.98;97.68;96825.34;5072292;28;20250;-70
2020/12/21 06:00:17;;;;;;;52.27;26.93;;;;;;;3.91;97.77;96822.06;5072260;28;20200;-70
2020/12/21 06:02:43;;;;;;;53.33;30.07;;;;;;;3.87;97.09;96826.09;5072535;28;20200;-71
2020/12/21 06:05:12;;;;;;;40.33;24.73;;;;;;;3.87;97.40;96823.53;5072387;28;20643;-70
2020/12/21 06:07:50;;;;;;;38.40;23.17;;;;;;;3.89;97.20;96821.50;5072152;28;20217;-70
2020/12/21 06:10:16;;;;;;;43.97;25.33;;;;;;;3.89;97.08;96817.16;5072183;28;20254;-70
2020/12/21 06:12:48;;;;;;;49.83;27.57;;;;;;;3.90;97.76;96812.78;5071982;28;20599;-68
2020/12/21 06:15:17;;;;;;;75.77;34.37;;;;;;;3.91;97.98;96816.94;5072035;28;20215;-70
2020/12/21 06:17:45;;;;;;;83.13;36.27;;;;;;;3.94;98.07;96819.06;5071849;28;20664;-70
2020/12/21 06:20:13;;;;;;;74.40;34.33;;;;;;;3.95;97.50;96820.63;5072111;28;20203;-69
2020/12/21 06:22:39;;;;;;;53.27;25.60;;;;;;;4.03;97.29;96819.56;5071911;28;20203;-69
2020/12/21 06:25:07;;;;;;;49.83;24.67;;;;;;;3.95;96.46;96820.63;5071892;28;20196;-69
2020/12/21 06:27:38;;;;;;;41.50;22.80;;;;;;;3.90;97.31;96821.28;5071704;28;20200;-69
2020/12/21 06:30:06;;;;;;;45.97;25.23;;;;;;;3.92;97.71;96818.50;5071729;28;20588;-69
2020/12/21 06:32:34;;;;;;;47.03;27.77;;;;;;;3.98;97.28;96820.22;5071708;28;20196;-70
2020/12/21 06:35:03;;;;;;;45.47;22.93;;;;;;;3.98;96.26;96825.34;5071529;28;20217;-70
2020/12/21 06:37:30;;;;;;;47.40;26.57;;;;;;;3.95;96.95;96835.28;5071512;28;20193;-70
2020/12/21 06:39:59;;;;;;;45.80;24.37;;;;;;;3.91;97.51;96829.78;5071375;28;20228;-66
2020/12/21 06:42:26;;;;;;;38.57;21.17;;;;;;;4.00;96.19;96827.69;5071452;28;20273;-69
2020/12/21 06:44:55;;;;;;;57.77;31.00;;;;;;;4.00;96.94;96830.25;5071548;28;20200;-69
2020/12/21 06:47:29;;;;;;;55.23;28.73;;;;;;;3.99;97.65;96826.91;5071446;28;20204;-70
2020/12/21 06:49:58;;;;;;;41.53;22.80;;;;;;;4.06;96.50;96827.59;5071482;28;20195;-69
2020/12/21 06:52:25;;;;;;;33.90;18.20;;;;;;;4.13;96.08;96828.31;5071120;28;20333;-69
2020/12/21 06:54:53;;;;;;;27.47;15.60;;;;;;;4.13;95.05;96830.88;5071072;28;20196;-70
2020/12/21 06:57:20;;;;;;;39.37;21.57;;;;;;;4.06;95.93;96837.91;5071119;28;20599;-70
2020/12/21 06:59:47;;;;;;;46.20;23.07;;;;;;;4.09;96.65;96837.44;5071080;28;20664;-70
2020/12/21 07:02:15;;;;;;;43.93;23.40;;;;;;;4.16;96.62;96843.31;5071121;28;20200;-71
2020/12/21 07:04:43;;;;;;;42.97;21.20;;;;;;;4.17;97.36;96839.72;5070877;28;20738;-68
2020/12/21 07:07:10;;;;;;;29.60;16.83;;;;;;;4.26;96.20;96833.25;5070908;28;20188;-70
2020/12/21 07:09:40;;;;;;;36.67;19.67;;;;;;;4.15;95.83;96831.44;5071126;28;20192;-69
2020/12/21 07:12:10;;;;;;;48.67;22.30;;;;;;;4.19;95.46;96837.72;5070810;28;20736;-71
2020/12/21 07:14:39;;;;;;;48.40;22.97;;;;;;;4.30;95.50;96831.03;5071226;28;20214;-71
2020/12/21 07:17:07;;;;;;;50.27;25.57;;;;;;;4.25;95.89;96836.84;5070796;28;20588;-69
2020/12/21 07:19:34;;;;;;;41.60;22.77;;;;;;;4.24;96.02;96847.34;5070144;28;20224;-69
2020/12/21 07:22:02;;;;;;;35.17;20.10;;;;;;;4.30;95.61;96844.69;5070709;28;20194;-69
2020/12/21 07:24:29;;;;;;;51.90;23.37;;;;;;;4.27;95.76;96846.91;5070811;28;20193;-67
2020/12/21 07:26:56;;;;;;;49.77;25.00;;;;;;;4.22;95.34;96850.16;5070722;28;20743;-70
2020/12/21 07:29:24;;;;;;;50.33;23.73;;;;;;;4.24;96.54;96849.91;5070695;28;20199;-70
2020/12/21 07:31:51;;;;;;;59.07;27.30;;;;;;;4.28;95.48;96858.78;5070523;28;20223;-69
2020/12/21 07:34:17;;;;;;;48.67;22.77;;;;;;;4.30;95.93;96856.75;5070318;28;20212;-71
2020/12/21 07:36:44;;;;;;;48.93;22.63;;;;;;;4.33;94.99;96859.66;5070279;28;20683;-71
2020/12/21 07:39:13;;;;;;;56.70;24.47;;;;;;;4.37;95.25;96859.25;5070360;28;20265;-70
2020/12/21 07:41:44;;;;;;;70.30;29.70;;;;;;;4.32;95.89;96858.13;5070249;28;20197;-69
2020/12/21 07:44:14;;;;;;;86.73;31.87;;;;;;;4.36;95.62;96857.66;5070329;28;20196;-67
2020/12/21 07:46:45;;;;;;;70.47;29.23;;;;;;;4.36;95.00;96853.31;5068971;28;20228;-70
2020/12/21 07:49:13;;;;;;;65.67;27.33;;;;;;;4.31;95.03;96856.53;5070457;28;20196;-70
2020/12/21 07:51:43;;;;;;;45.97;21.10;;;;;;;4.28;95.58;96854.41;5070161;28;20189;-70
2020/12/21 07:54:13;;;;;;;59.23;26.90;;;;;;;4.34;96.09;96856.09;5070213;28;20192;-70
2020/12/21 07:56:40;;;;;;;57.97;26.23;;;;;;;4.39;95.59;96852.06;5070126;28;20200;-70
2020/12/21 07:59:17;;;;;;;49.53;23.73;;;;;;;4.47;95.51;96844.06;5070107;28;20511;-70
2020/12/21 08:01:46;;;;;;;46.27;25.60;;;;;;;4.46;94.67;96842.47;5070104;28;20199;-68
2020/12/21 08:04:17;;;;;;;37.77;19.53;;;;;;;4.55;94.51;96839.38;5070194;28;20207;-70
2020/12/21 08:06:46;;;;;;;27.07;15.40;;;;;;;4.61;94.32;96841.06;5070143;28;20232;-71
2020/12/21 08:09:13;;;;;;;40.37;20.67;;;;;;;4.58;94.58;96845.88;5069988;28;20199;-71
2020/12/21 08:11:41;;;;;;;39.97;21.37;;;;;;;4.61;94.21;96850.56;5069986;28;20195;-70
2020/12/21 08:14:08;;;;;;;29.93;18.03;;;;;;;4.55;94.43;96859.16;5070248;28;20253;-68
2020/12/21 08:16:35;;;;;;;28.43;15.57;;;;;;;4.66;93.73;96860.97;5069920;28;20701;-71
2020/12/21 08:19:03;;;;;;;30.87;18.63;;;;;;;4.67;93.56;96860.78;5069776;28;20722;-67
2020/12/21 08:21:30;;;;;;;38.37;18.13;;;;;;;4.72;93.56;96863.47;5069913;28;20196;-70
2020/12/21 08:23:58;;;;;;;26.33;16.57;;;;;;;4.75;93.94;96854.50;5069942;28;20197;-70
2020/12/21 08:26:26;;;;;;;35.47;18.60;;;;;;;4.79;93.17;96850.47;5070113;28;20291;-71
2020/12/21 08:28:54;;;;;;;37.33;20.00;;;;;;;4.83;94.13;96849.03;5069849;28;20196;-71
2020/12/21 08:31:22;;;;;;;39.77;22.80;;;;;;;4.85;94.47;96847.00;5071215;28;20211;-71
2020/12/21 08:34:00;;;;;;;35.87;23.63;;;;;;;4.89;93.47;96853.28;5073742;28;20234;-70
2020/12/21 08:36:34;;;;;;;35.40;22.67;;;;;;;4.96;93.48;96853.97;5073921;28;20204;-70
2020/12/21 08:39:12;;;;;;;48.23;29.70;;;;;;;4.96;93.12;96850.59;5073738;28;20238;-71
2020/12/21 08:41:41;;;;;;;28.40;17.07;;;;;;;5.09;92.16;96848.56;5073843;28;20229;-70
2020/12/21 08:44:14;;;;;;;28.87;15.10;;;;;;;5.12;91.14;96843.00;5073522;28;20565;-70
2020/12/21 08:46:44;;;;;;;73.70;36.27;;;;;;;5.11;92.96;96841.41;5073827;28;20208;-69
2020/12/21 08:49:10;;;;;;;34.33;17.37;;;;;;;5.17;94.59;96845.69;5073711;28;20289;-71
2020/12/21 08:51:38;;;;;;;30.77;15.37;;;;;;;5.18;94.57;96844.66;5073647;28;20205;-68
2020/12/21 08:54:05;;;;;;;27.77;12.90;;;;;;;5.26;91.01;96845.31;5073558;28;20193;-71
2020/12/21 08:56:32;;;;;;;37.97;18.93;;;;;;;5.26;91.07;96840.94;5073558;28;20227;-71
2020/12/21 08:58:59;;;;;;;103.67;42.47;;;;;;;5.40;90.26;96841.47;5073672;28;20315;-69
2020/12/21 09:01:26;;;;;;;158.57;61.00;;;;;;;5.39;91.06;96845.06;5073354;28;20199;-70
2020/12/21 09:03:52;;;;;;;233.87;82.00;;;;;;;5.38;92.22;96838.38;5073622;28;20204;-69
2020/12/21 09:06:21;;;;;;;154.37;55.87;;;;;;;5.52;91.68;96837.09;5073454;28;20203;-70
2020/12/21 09:08:49;;;;;;;188.87;66.03;;;;;;;5.51;91.02;96838.13;5073374;28;20253;-70
2020/12/21 09:11:20;;;;;;;126.97;45.67;;;;;;;5.43;90.10;96835.91;5073235;28;20202;-71
2020/12/21 09:13:47;;;;;;;277.93;93.47;;;;;;;5.38;91.93;96828.81;5073094;28;20206;-70
2020/12/21 09:16:19;;;;;;;151.17;55.83;;;;;;;5.47;90.96;96831.84;5073019;28;20199;-70
2020/12/21 09:18:46;;;;;;;101.27;39.03;;;;;;;5.48;91.33;96828.25;5073020;28;20224;-72
2020/12/21 09:21:21;;;;;;;34.93;15.73;;;;;;;5.55;91.18;96828.91;5072932;28;20232;-69
2020/12/21 09:23:49;;;;;;;319.57;116.30;;;;;;;5.56;91.23;96826.09;5072804;28;20196;-70
2020/12/21 09:26:16;;;;;;;101.43;43.13;;;;;;;5.48;90.30;96823.88;5072904;28;20193;-70
2020/12/21 09:28:43;;;;;;;34.93;16.37;;;;;;;5.45;89.03;96826.13;5072956;28;20668;-70
2020/12/21 09:31:11;;;;;;;25.90;12.50;;;;;;;5.52;88.11;96819.84;5072852;28;20504;-68
2020/12/21 09:33:38;;;;;;;49.83;20.33;;;;;;;5.54;88.18;96812.66;5072718;28;20284;-69
2020/12/21 09:36:06;;;;;;;30.80;15.03;;;;;;;5.53;88.44;96813.66;5072611;28;20247;-69
2020/12/21 09:38:33;;;;;;;21.60;11.63;;;;;;;5.54;89.15;96814.44;5072872;28;20224;-68
2020/12/21 09:41:00;;;;;;;39.53;17.57;;;;;;;5.61;87.68;96810.72;5072713;28;20588;-70
2020/12/21 09:43:27;;;;;;;22.33;11.57;;;;;;;5.71;87.16;96804.97;5071810;28;20231;-65
2020/12/21 09:45:55;;;;;;;478.37;135.13;;;;;;;5.49;90.15;96809.97;5072492;28;20719;-69
2020/12/21 09:48:23;;;;;;;104.03;29.73;;;;;;;5.64;88.63;96801.75;5072797;28;20262;-68
2020/12/21 09:50:49;;;;;;;41.40;16.83;;;;;;;5.72;86.61;96803.97;5072630;28;20207;-71
2020/12/21 09:53:17;;;;;;;23.47;12.23;;;;;;;5.71;86.25;96799.03;5072817;28;20581;-70
2020/12/21 09:55:44;;;;;;;23.57;13.20;;;;;;;5.67;87.61;96798.72;5072445;28;20232;-71
2020/12/21 09:58:12;;;;;;;188.10;48.33;;;;;;;5.78;88.18;96797.88;5072640;28;20304;-71
2020/12/21 10:00:38;;;;;;;31.67;13.67;;;;;;;5.83;87.34;96799.78;5072383;28;20694;-71
2020/12/21 10:03:05;;;;;;;35.70;16.00;;;;;;;5.90;86.27;96798.66;5072420;28;20199;-69
2020/12/21 10:05:32;;;;;;;86.43;28.77;;;;;;;5.98;86.22;96802.66;5072154;28;20194;-70
2020/12/21 10:08:02;;;;;;;145.27;39.20;;;;;;;5.99;86.78;96796.47;5072326;28;20667;-69
2020/12/21 10:10:28;;;;;;;68.53;23.57;;;;;;;6.00;87.62;96798.06;5072497;28;20206;-71
2020/12/21 10:12:55;;;;;;;45.47;17.60;;;;;;;6.04;87.00;96792.19;5072097;28;20694;-67
2020/12/21 10:15:23;;;;;;;18.37;8.63;;;;;;;6.07;85.65;96790.97;5071981;28;20291;-72
2020/12/21 10:17:50;;;;;;;16.80;9.43;;;;;;;5.98;85.39;96790.53;5072008;28;20245;-71
2020/12/21 10:20:17;;;;;;;13.87;7.57;;;;;;;5.97;84.93;96783.03;5071837;28;20607;-68
2020/12/21 10:22:43;;;;;;;16.03;7.77;;;;;;;5.94;83.78;96773.94;5071799;28;20192;-70
2020/12/21 10:25:10;;;;;;;16.60;8.57;;;;;;;5.99;83.89;96779.19;5071636;28;20287;-66
2020/12/21 10:27:37;;;;;;;18.40;9.63;;;;;;;5.98;84.04;96769.88;5071823;28;20283;-70
2020/12/21 10:30:04;;;;;;;12.47;8.13;;;;;;;6.00;84.06;96765.28;5071565;28;20755;-70
2020/12/21 10:32:32;;;;;;;19.03;9.57;;;;;;;5.98;83.24;96769.09;5071857;28;20662;-70
2020/12/21 10:34:59;;;;;;;16.17;9.43;;;;;;;6.03;83.36;96771.78;5071497;28;20222;-70
2020/12/21 10:37:25;;;;;;;15.47;9.00;;;;;;;6.01;83.36;96763.50;5071504;28;20224;-70
2020/12/21 10:39:52;;;;;;;16.63;9.27;;;;;;;6.02;82.81;96760.69;5071533;28;20224;-71
2020/12/21 10:42:20;;;;;;;13.00;7.43;;;;;;;5.89;83.25;96758.38;5071505;28;20271;-70
2020/12/21 10:44:47;;;;;;;13.30;7.40;;;;;;;5.89;83.18;96757.59;5071793;28;20748;-69
2020/12/21 10:47:13;;;;;;;12.93;6.93;;;;;;;5.80;83.70;96746.84;5071442;28;20236;-70
2020/12/21 10:49:41;;;;;;;9.97;6.07;;;;;;;5.82;81.84;96749.22;5071255;28;20732;-69
2020/12/21 10:52:08;;;;;;;16.73;9.03;;;;;;;5.79;82.70;96759.97;5071276;28;20193;-69
2020/12/21 10:54:35;;;;;;;18.03;9.67;;;;;;;5.78;83.96;96758.44;5070260;28;20228;-71
2020/12/21 10:57:04;;;;;;;18.97;9.20;;;;;;;5.76;85.24;96763.81;5071225;28;20197;-69
2020/12/21 10:59:31;;;;;;;16.37;9.03;;;;;;;5.87;84.06;96767.38;5071151;28;20239;-69
2020/12/21 11:01:58;;;;;;;13.90;8.80;;;;;;;5.81;84.42;96756.16;5070996;28;20747;-71
2020/12/21 11:04:25;;;;;;;15.93;8.13;;;;;;;5.77;83.72;96759.44;5071000;28;20232;-70
2020/12/21 11:06:53;;;;;;;13.97;8.53;;;;;;;5.73;84.08;96758.34;5071122;28;20564;-70
2020/12/21 11:09:20;;;;;;;15.60;8.13;;;;;;;5.76;85.27;96758.66;5070958;28;20741;-70
2020/12/21 11:11:46;;;;;;;11.93;7.27;;;;;;;5.72;85.19;96759.34;5070934;28;20289;-71
2020/12/21 11:14:13;;;;;;;11.70;7.37;;;;;;;5.78;84.94;96753.28;5070925;28;20950;-70
2020/12/21 11:16:40;;;;;;;14.70;7.27;;;;;;;5.76;83.70;96761.22;5070776;28;20283;-71
2020/12/21 11:19:07;;;;;;;10.17;6.80;;;;;;;5.76;84.19;96756.06;5070807;28;20258;-71
2020/12/21 11:21:36;;;;;;;12.23;6.60;;;;;;;5.80;83.42;96759.75;5070663;28;20197;-69
2020/12/21 11:24:04;;;;;;;11.17;7.07;;;;;;;5.73;84.42;96755.75;5070664;28;20189;-71
2020/12/21 11:26:31;;;;;;;11.17;7.20;;;;;;;5.67;84.50;96749.72;5070562;28;20565;-70
2020/12/21 11:28:58;;;;;;;11.23;7.20;;;;;;;5.69;83.97;96752.84;5070898;28;20803;-70
2020/12/21 11:31:25;;;;;;;16.63;7.10;;;;;;;5.73;84.15;96750.59;5070571;28;20240;-70
2020/12/21 11:33:51;;;;;;;12.50;7.43;;;;;;;5.78;85.20;96738.56;5070319;28;20192;-68